Airfield :
LOGIN :

Register | Disclaimer

   EN    FR    IT 

 










Legend :    VFR   Marginal VFR   IFR   Intensive IFR   Very Intensive IFR
Visi :
Ceiling :
>= 8 km
>= 3000ft
5 to 8 km
1000 to 3000 ft
1500m to 5 km
500 to 1000 ft
800 to 1500m
200 to 500 ft
< 800m
< 200 ft
Symbols :   Thunderstorms  Fog  Heavy snow  Heavy precipitations  Wind > 20 kt
SIGMETs :     Misc.  Thunderstorms  Icing  Turbulence  Mountain Waves  Volcanic Ashes







- Airport Elevation : 256 ft
- IATA code : CFR
- Download approach charts


LFRK - Caen

CURRENT METAR :
  • 180730Z AUTO 26022KT 9999 OVC012 11/10 Q1005 BECMG 26025G40KT BKN020

EXPIRED METARs :
  • 180700Z AUTO 26026G38KT 9999 OVC012 11/10 Q1004 TEMPO RA BECMG BKN020
  • 180630Z AUTO 26024G36KT 9999 OVC012 11/10 Q1004 TEMPO RA BECMG BKN020
  • 180600Z AUTO 26025G36KT 9999 BKN013 OVC020 11/10 Q1004 TEMPO RA
  • 180530Z AUTO 26028G40KT 9000 OVC012 11/09 Q1004 TEMPO RA
  • 180500Z AUTO 25026KT 7000 BKN013 OVC018 11/09 Q1004

TAF TAF LFRK
Valid from the 18 at 06:00 until the 18 at 15:00 UTC


180500Z 1806/1815 26025G40KT 9999 BKN020
TEMPO 1806/1808 5000 RA BKN014
BECMG 1810/1812 27015G30KT
TEMPO 1813/1815 5000 SHRA
Met : +33 2 31 26 68 11
No reported NOTAMs for that airfield.
1 SIGMET reported for the Brest FIR (LFRR) :
 
Severe turbulence
LFRR SIGMET 2 VALID 180600/180900 LFPW
LFRR BREST FIR/UIR SEV TURB FCST N OF LINE N4715 W00015 - N4645 W00800 SFC/FL060 STNR NC=



MET'MAP, your aeronautical weather chart ! - Copyright ORBIFLY December 2007 - Disclaimer

ORBIFLY MET'MAP TEAM :

Programming & Development : Alexandra Zaïnal
Concept & Development : Baudouin d'Aumeries
Co-Development & Prog : Marc-Olivier Méhu
Technical & hardware support : Manuel Goepfert

Contact : metmap@orbifly.com




SOURCES & CREDITS :

   NOAA